Accueil
METAR-TAF:

METAR-TAF

Aéroports :

Aéroport Le Mans-Arnage

Le Mans, France

latitude: 47-56N, longitude: 000-12E, altitude: 59 m

Observation

Le bulletin a été fait il y a 38 minutes, à 10:00 UTC
Vent 9 kt de est/nord-est, variant entre nord/nord-est et est
Température 6°C
Humidité 65%
Pression 1020 hPa
Visibilité 10 km ou plus
pas de nuages en-dessous de 1500 mètres et pas de cumulonimbus.

METAR: LFRM 181000Z AUTO 06009KT 020V080 CAVOK 06/00 Q1020 NOSIG

Heure: 11:38 (10:38 UTC)

Prévision

Le bulletin a été fait il y a 5 heures et 38 minutes, à 05:00 UTC
Prévision valable du 18 à 06 UTC au 19 à 06 UTC
Vent 8 kt de est/nord-est
Visibilité 10 km ou plus
pas de nuages en-dessous de 1500 mètres et pas de cumulonimbus.

TAF: LFRM 180500Z 1806/1906 06008KT CAVOK

Observations et prévisions météorologiques de plus de 4000 aéroports (messages METAR et TAF).

Les stations disponibles sont représentées par des disques jaunes et rouges sur la carte.

Passer la souris dessus pour voir le nom de la station.

Cliquer dessus pour voir les observations et prévisions météorologiques.

Pour changer de carte: cliquez sur les boutons verts avec une croix noire pour zoomer, sur le bouton vert avec un tiret pour effectuer un zoom arrière, ou sur les flèches vertes pour les cartes adjacentes.


METAR-TAF: